Time;durP1;ratioP1;P1;durP2;ratioP2;P2;SDS_P1;SDS_P2;PMS_P1;PMS_P2;Temp;Humidity;BMP_temperature;BMP_pressure;BME280_temperature;BME280_humidity;BME280_pressure;Samples;Min_cycle;Max_cycle;Signal;HPM_P1;HPM_P2
2023/05/29 00:00:37;;;;;;;0.10;0.10;;;;;;;;;;5064912;28;20045;-77
2023/05/29 00:03:04;;;;;;;0.10;0.10;;;;;;;;;;5068856;28;20139;-77
2023/05/29 00:05:31;;;;;;;0.10;0.10;;;;;;;;;;5066583;28;20304;-78
2023/05/29 00:07:58;;;;;;;0.10;0.10;;;;;;;;;;5065189;28;20064;-78
2023/05/29 00:10:24;;;;;;;0.20;0.20;;;;;;;;;;5068486;28;20061;-77
2023/05/29 00:12:51;;;;;;;0.10;0.10;;;;;;;;;;5068227;28;20053;-77
2023/05/29 00:15:17;;;;;;;0.28;0.28;;;;;;;;;;5068573;28;20419;-77
2023/05/29 00:17:44;;;;;;;0.10;0.10;;;;;;;;;;5066198;28;20057;-77
2023/05/29 00:20:14;;;;;;;0.10;0.10;;;;;;;;;;5068889;28;20084;-77
2023/05/29 00:22:41;;;;;;;0.10;0.10;;;;;;;;;;5067943;28;20079;-78
2023/05/29 00:25:08;;;;;;;0.10;0.10;;;;;;;;;;5066804;28;20053;-77
2023/05/29 00:27:35;;;;;;;0.10;0.10;;;;;;;;;;5066457;28;20053;-78
2023/05/29 00:30:02;;;;;;;0.10;0.10;;;;;;;;;;5064897;28;20061;-78
2023/05/29 00:32:28;;;;;;;0.10;0.10;;;;;;;;;;5067774;28;20060;-78
2023/05/29 00:34:55;;;;;;;0.10;0.10;;;;;;;;;;5062179;28;20562;-78
2023/05/29 00:37:22;;;;;;;0.10;0.10;;;;;;;;;;5065554;28;20099;-77
2023/05/29 00:39:49;;;;;;;0.10;0.10;;;;;;;;;;5067858;28;20570;-77
2023/05/29 00:42:15;;;;;;;0.10;0.10;;;;;;;;;;5067777;28;20556;-77
2023/05/29 00:44:42;;;;;;;0.10;0.10;;;;;;;;;;5068079;28;20065;-78
2023/05/29 00:47:08;;;;;;;0.20;0.20;;;;;;;;;;5066973;28;20168;-77
2023/05/29 00:49:35;;;;;;;0.17;0.17;;;;;;;;;;5065731;28;20437;-77
2023/05/29 00:52:03;;;;;;;0.10;0.10;;;;;;;;;;5066191;28;20103;-78
2023/05/29 00:54:29;;;;;;;0.32;0.32;;;;;;;;;;5067345;28;20088;-77
2023/05/29 00:56:59;;;;;;;0.10;0.10;;;;;;;;;;5067346;28;20071;-78
2023/05/29 00:59:26;;;;;;;0.10;0.10;;;;;;;;;;5067406;28;20049;-77
2023/05/29 01:01:53;;;;;;;0.10;0.10;;;;;;;;;;5068405;28;20951;-78
2023/05/29 01:04:23;;;;;;;0.10;0.10;;;;;;;;;;5067624;28;20053;-77
2023/05/29 01:06:51;;;;;;;0.10;0.10;;;;;;;;;;5068368;28;20615;-77
2023/05/29 01:09:17;;;;;;;0.10;0.10;;;;;;;;;;5063819;28;20530;-77
2023/05/29 01:11:54;;;;;;;0.10;0.10;;;;;;;;;;5065926;28;20130;-77
2023/05/29 01:14:29;;;;;;;0.55;0.40;;;;;;;;;;5067680;28;20675;-77
2023/05/29 01:17:05;;;;;;;0.10;0.10;;;;;;;;;;5065305;28;20110;-77
2023/05/29 01:19:38;;;;;;;0.10;0.10;;;;;;;;;;5063371;28;20500;-77
2023/05/29 01:22:11;;;;;;;0.10;0.10;;;;;;;;;;5066345;28;20061;-77
2023/05/29 01:24:47;;;;;;;0.10;0.10;;;;;;;;;;5066900;28;20103;-78
2023/05/29 01:27:16;;;;;;;0.10;0.10;;;;;;;;;;5066900;28;20049;-78
2023/05/29 01:29:43;;;;;;;0.10;0.10;;;;;;;;;;5063972;28;20104;-77
2023/05/29 01:32:10;;;;;;;0.10;0.10;;;;;;;;;;5065369;28;20069;-78
2023/05/29 01:34:37;;;;;;;0.10;0.10;;;;;;;;;;5066396;28;20568;-77
2023/05/29 01:37:03;;;;;;;0.10;0.10;;;;;;;;;;5066975;28;20083;-77
2023/05/29 01:39:32;;;;;;;0.10;0.10;;;;;;;;;;5064375;28;20053;-76
2023/05/29 01:41:59;;;;;;;0.10;0.10;;;;;;;;;;5064383;28;20049;-78
2023/05/29 01:44:25;;;;;;;0.10;0.10;;;;;;;;;;5067237;28;20049;-77
2023/05/29 01:46:52;;;;;;;0.10;0.10;;;;;;;;;;5063978;28;20547;-77
2023/05/29 01:49:20;;;;;;;0.10;0.10;;;;;;;;;;5063436;28;20053;-77
2023/05/29 01:51:47;;;;;;;0.10;0.10;;;;;;;;;;5066183;28;20085;-77
2023/05/29 01:54:13;;;;;;;0.10;0.10;;;;;;;;;;5065236;28;20518;-77
2023/05/29 01:56:41;;;;;;;0.10;0.10;;;;;;;;;;5066246;28;20063;-77
2023/05/29 01:59:08;;;;;;;0.10;0.10;;;;;;;;;;5066322;28;20057;-77
2023/05/29 02:01:34;;;;;;;0.10;0.10;;;;;;;;;;5063549;28;20908;-77
2023/05/29 02:04:01;;;;;;;0.10;0.10;;;;;;;;;;5061515;28;20761;-77
2023/05/29 02:06:27;;;;;;;0.10;0.10;;;;;;;;;;5063122;28;20049;-77
2023/05/29 02:08:54;;;;;;;0.10;0.10;;;;;;;;;;5065371;28;20048;-77
2023/05/29 02:11:21;;;;;;;0.10;0.10;;;;;;;;;;5065012;28;20064;-77
2023/05/29 02:13:48;;;;;;;0.10;0.10;;;;;;;;;;5062407;28;20053;-77
2023/05/29 02:16:15;;;;;;;0.10;0.10;;;;;;;;;;5064144;28;20069;-77
2023/05/29 02:18:41;;;;;;;0.10;0.10;;;;;;;;;;5063596;28;20068;-77
2023/05/29 02:21:08;;;;;;;0.10;0.10;;;;;;;;;;5064353;28;20056;-77
2023/05/29 02:23:35;;;;;;;0.10;0.10;;;;;;;;;;5060731;28;20630;-77
2023/05/29 02:26:01;;;;;;;0.10;0.10;;;;;;;;;;5062664;28;20562;-77
2023/05/29 02:28:27;;;;;;;0.52;0.52;;;;;;;;;;5064033;28;20588;-77
2023/05/29 02:30:54;;;;;;;0.10;0.10;;;;;;;;;;5064758;28;20048;-78
2023/05/29 02:33:21;;;;;;;0.10;0.10;;;;;;;;;;5063123;28;20052;-77
2023/05/29 02:35:47;;;;;;;0.10;0.10;;;;;;;;;;5064377;28;20060;-77
2023/05/29 02:38:14;;;;;;;0.10;0.10;;;;;;;;;;5064224;28;20080;-77
2023/05/29 02:40:40;;;;;;;0.20;0.20;;;;;;;;;;5062500;28;20053;-77
2023/05/29 02:43:07;;;;;;;0.10;0.10;;;;;;;;;;5061861;28;20057;-77
2023/05/29 02:45:34;;;;;;;0.10;0.10;;;;;;;;;;5064250;28;20053;-77
2023/05/29 02:48:00;;;;;;;1.67;1.20;;;;;;;;;;5065085;28;20982;-77
2023/05/29 02:50:27;;;;;;;0.10;0.10;;;;;;;;;;5065063;28;20060;-78
2023/05/29 02:52:54;;;;;;;0.10;0.10;;;;;;;;;;5063651;28;21300;-77
2023/05/29 02:55:21;;;;;;;0.10;0.10;;;;;;;;;;5065835;28;20049;-77
2023/05/29 02:57:50;;;;;;;0.10;0.10;;;;;;;;;;5065566;28;20832;-77
2023/05/29 03:00:18;;;;;;;0.10;0.10;;;;;;;;;;5066192;28;20150;-76
2023/05/29 03:02:44;;;;;;;0.10;0.10;;;;;;;;;;5061390;28;20060;-77
2023/05/29 03:05:11;;;;;;;0.10;0.10;;;;;;;;;;5066242;28;20056;-76
2023/05/29 03:07:38;;;;;;;0.13;0.13;;;;;;;;;;5062860;28;20061;-77
2023/05/29 03:10:04;;;;;;;0.10;0.10;;;;;;;;;;5067379;28;21149;-77
2023/05/29 03:12:31;;;;;;;0.10;0.10;;;;;;;;;;5063761;28;20052;-77
2023/05/29 03:14:57;;;;;;;0.10;0.10;;;;;;;;;;5065350;28;20061;-78
2023/05/29 03:17:23;;;;;;;0.10;0.10;;;;;;;;;;5064150;28;20065;-77
2023/05/29 03:19:50;;;;;;;0.10;0.10;;;;;;;;;;5065054;28;20057;-77
2023/05/29 03:22:17;;;;;;;0.17;0.17;;;;;;;;;;5062640;28;20127;-77
2023/05/29 03:24:44;;;;;;;0.10;0.10;;;;;;;;;;5063705;28;20148;-77
2023/05/29 03:29:45;;;;;;;0.10;0.10;;;;;;;;;;5177132;22;21105;-76
2023/05/29 03:32:12;;;;;;;0.10;0.10;;;;;;;;;;5078054;28;20048;-79
2023/05/29 03:34:39;;;;;;;0.10;0.10;;;;;;;;;;5080737;28;20148;-78
2023/05/29 03:37:06;;;;;;;0.10;0.10;;;;;;;;;;5086169;28;20146;-78
2023/05/29 03:39:32;;;;;;;0.10;0.10;;;;;;;;;;5065769;28;20169;-78
2023/05/29 03:41:59;;;;;;;0.10;0.10;;;;;;;;;;5083965;28;20060;-78
2023/05/29 03:44:27;;;;;;;0.10;0.10;;;;;;;;;;5081449;28;20164;-76
2023/05/29 03:46:58;;;;;;;0.10;0.10;;;;;;;;;;5085138;28;20056;-76
2023/05/29 03:49:24;;;;;;;0.10;0.10;;;;;;;;;;5085456;28;20163;-79
2023/05/29 03:51:51;;;;;;;0.10;0.10;;;;;;;;;;5085585;28;20095;-78
2023/05/29 03:56:59;;;;;;;0.10;0.10;;;;;;;;;;5080898;28;20052;-76
2023/05/29 03:59:26;;;;;;;0.10;0.10;;;;;;;;;;5082096;28;20064;-75
2023/05/29 04:01:53;;;;;;;0.10;0.10;;;;;;;;;;5081833;28;20065;-76
2023/05/29 04:04:19;;;;;;;0.10;0.10;;;;;;;;;;5082989;28;20114;-78
2023/05/29 04:06:46;;;;;;;0.10;0.10;;;;;;;;;;5065501;28;20060;-76
2023/05/29 04:09:13;;;;;;;0.10;0.10;;;;;;;;;;5062861;28;20645;-77
2023/05/29 04:11:41;;;;;;;0.10;0.10;;;;;;;;;;5077916;28;20053;-76
2023/05/29 04:14:08;;;;;;;0.10;0.10;;;;;;;;;;5050207;28;20057;-78
2023/05/29 04:16:34;;;;;;;0.10;0.10;;;;;;;;;;5043709;28;20519;-76
2023/05/29 04:19:02;;;;;;;0.10;0.10;;;;;;;;;;5045187;28;20034;-78
2023/05/29 04:21:34;;;;;;;0.13;0.13;;;;;;;;;;5044592;28;20064;-78
2023/05/29 04:24:04;;;;;;;0.10;0.10;;;;;;;;;;5049016;28;20586;-75
2023/05/29 04:26:40;;;;;;;0.15;0.15;;;;;;;;;;5063184;28;20053;-75
2023/05/29 04:31:51;;;;;;;0.10;0.10;;;;;;;;;;4984652;28;20089;-76
2023/05/29 04:34:17;;;;;;;0.20;0.20;;;;;;;;;;5036366;28;20089;-77
2023/05/29 04:36:44;;;;;;;0.10;0.10;;;;;;;;;;5028621;28;20084;-76
2023/05/29 04:39:11;;;;;;;0.10;0.10;;;;;;;;;;5021904;28;20963;-76
2023/05/29 04:41:37;;;;;;;0.20;0.20;;;;;;;;;;5022404;28;20054;-77
2023/05/29 04:44:04;;;;;;;0.10;0.10;;;;;;;;;;5022255;28;20054;-77
2023/05/29 04:46:30;;;;;;;0.10;0.10;;;;;;;;;;5019029;28;20531;-76
2023/05/29 04:48:57;;;;;;;0.10;0.10;;;;;;;;;;5026160;28;20073;-76
2023/05/29 04:51:24;;;;;;;0.10;0.10;;;;;;;;;;5025667;28;20161;-77
2023/05/29 04:53:54;;;;;;;0.10;0.10;;;;;;;;;;5024881;28;20057;-76
2023/05/29 04:56:20;;;;;;;0.17;0.17;;;;;;;;;;5024658;28;20530;-76
2023/05/29 04:58:47;;;;;;;0.22;0.22;;;;;;;;;;5025408;28;20073;-76
2023/05/29 05:01:14;;;;;;;0.10;0.10;;;;;;;;;;5024154;28;20156;-76
2023/05/29 05:03:41;;;;;;;0.10;0.10;;;;;;;;;;5025254;28;20064;-78
2023/05/29 05:06:07;;;;;;;0.10;0.10;;;;;;;;;;5023263;28;20534;-76
2023/05/29 05:08:34;;;;;;;0.10;0.10;;;;;;;;;;5025532;28;20104;-76
2023/05/29 05:11:00;;;;;;;0.10;0.10;;;;;;;;;;5025514;28;20905;-76
2023/05/29 05:13:27;;;;;;;0.10;0.10;;;;;;;;;;5025506;28;20444;-77
2023/05/29 05:15:54;;;;;;;0.10;0.10;;;;;;;;;;5023337;28;20058;-75
2023/05/29 05:18:20;;;;;;;0.10;0.10;;;;;;;;;;5024591;28;20046;-76
2023/05/29 05:20:46;;;;;;;0.10;0.10;;;;;;;;;;5024958;28;20116;-76
2023/05/29 05:23:13;;;;;;;0.10;0.10;;;;;;;;;;5023959;28;20060;-76
2023/05/29 05:25:40;;;;;;;0.10;0.10;;;;;;;;;;5021472;28;20050;-77
2023/05/29 05:28:08;;;;;;;0.10;0.10;;;;;;;;;;5025792;28;20058;-76
2023/05/29 05:30:35;;;;;;;0.10;0.10;;;;;;;;;;5023785;28;21042;-76
2023/05/29 05:33:02;;;;;;;0.10;0.10;;;;;;;;;;5023293;28;20195;-76
2023/05/29 05:35:28;;;;;;;0.10;0.10;;;;;;;;;;5024569;28;20137;-76
2023/05/29 05:37:57;;;;;;;0.10;0.10;;;;;;;;;;5024242;28;20144;-76
2023/05/29 05:40:27;;;;;;;0.10;0.10;;;;;;;;;;5024152;28;20870;-76
2023/05/29 05:42:53;;;;;;;0.10;0.10;;;;;;;;;;5022528;28;20057;-76
2023/05/29 05:45:20;;;;;;;0.10;0.10;;;;;;;;;;5023565;28;20129;-76
2023/05/29 05:47:46;;;;;;;0.10;0.10;;;;;;;;;;5023620;28;20137;-76
2023/05/29 05:50:13;;;;;;;0.10;0.10;;;;;;;;;;5025330;28;20092;-77
2023/05/29 05:52:39;;;;;;;0.10;0.10;;;;;;;;;;5023103;28;20065;-76
2023/05/29 05:55:06;;;;;;;0.10;0.10;;;;;;;;;;5023983;28;20062;-76
2023/05/29 05:57:33;;;;;;;0.20;0.20;;;;;;;;;;5023011;28;20054;-74
2023/05/29 06:00:00;;;;;;;0.10;0.10;;;;;;;;;;5022806;28;21761;-75
2023/05/29 06:02:26;;;;;;;0.10;0.10;;;;;;;;;;5023646;28;20449;-75
2023/05/29 06:04:53;;;;;;;0.75;0.45;;;;;;;;;;5024743;28;20054;-75
2023/05/29 06:07:19;;;;;;;0.10;0.10;;;;;;;;;;5025094;28;20222;-75
2023/05/29 06:09:47;;;;;;;0.10;0.10;;;;;;;;;;5025919;28;20058;-75
2023/05/29 06:12:13;;;;;;;0.43;0.43;;;;;;;;;;5024195;28;20843;-76
2023/05/29 06:14:40;;;;;;;0.20;0.20;;;;;;;;;;5025143;28;20502;-75
2023/05/29 06:17:06;;;;;;;0.10;0.10;;;;;;;;;;5024030;28;20056;-76
2023/05/29 06:19:32;;;;;;;0.10;0.10;;;;;;;;;;5024748;28;20127;-76
2023/05/29 06:21:59;;;;;;;0.20;0.20;;;;;;;;;;5023009;28;20882;-75
2023/05/29 06:24:25;;;;;;;0.10;0.10;;;;;;;;;;5024208;28;20133;-76
2023/05/29 06:26:52;;;;;;;0.47;0.30;;;;;;;;;;5022966;28;20061;-75
2023/05/29 06:29:18;;;;;;;0.43;0.43;;;;;;;;;;5024360;28;20820;-76
2023/05/29 06:31:45;;;;;;;0.10;0.10;;;;;;;;;;5022598;28;20539;-76
2023/05/29 06:34:11;;;;;;;0.10;0.10;;;;;;;;;;5023618;28;20145;-76
2023/05/29 06:36:38;;;;;;;0.10;0.10;;;;;;;;;;5022997;28;20197;-75
2023/05/29 06:39:05;;;;;;;0.25;0.25;;;;;;;;;;5023572;28;20116;-76
2023/05/29 06:41:31;;;;;;;0.10;0.10;;;;;;;;;;5024503;28;20406;-76
2023/05/29 06:43:57;;;;;;;0.10;0.10;;;;;;;;;;5024027;28;20054;-77
2023/05/29 06:46:24;;;;;;;0.25;0.25;;;;;;;;;;5022580;28;20105;-77
2023/05/29 06:48:51;;;;;;;0.20;0.20;;;;;;;;;;5022094;28;20487;-76
2023/05/29 06:51:17;;;;;;;0.25;0.17;;;;;;;;;;5022068;28;20046;-77
2023/05/29 06:53:44;;;;;;;0.10;0.10;;;;;;;;;;5022630;28;20508;-77
2023/05/29 06:56:10;;;;;;;0.20;0.20;;;;;;;;;;5020059;28;20081;-77
2023/05/29 06:58:37;;;;;;;0.15;0.15;;;;;;;;;;5023780;28;20080;-77
2023/05/29 07:01:03;;;;;;;1.25;0.95;;;;;;;;;;5023743;28;20916;-77
2023/05/29 07:03:33;;;;;;;0.10;0.10;;;;;;;;;;5022632;28;20558;-76
2023/05/29 07:06:00;;;;;;;0.10;0.10;;;;;;;;;;5022897;28;20056;-77
2023/05/29 07:08:27;;;;;;;0.10;0.10;;;;;;;;;;5024272;28;20524;-77
2023/05/29 07:10:53;;;;;;;0.10;0.10;;;;;;;;;;5021819;28;20058;-76
2023/05/29 07:13:20;;;;;;;0.17;0.17;;;;;;;;;;5022151;28;20054;-77
2023/05/29 07:15:50;;;;;;;0.63;0.32;;;;;;;;;;5022067;28;20058;-77
2023/05/29 07:18:16;;;;;;;0.10;0.10;;;;;;;;;;5022956;28;20058;-77
2023/05/29 07:20:43;;;;;;;0.10;0.10;;;;;;;;;;5022993;28;20058;-77
2023/05/29 07:23:10;;;;;;;1.25;0.50;;;;;;;;;;5020887;28;20265;-76
2023/05/29 07:25:36;;;;;;;0.20;0.20;;;;;;;;;;5021804;28;21058;-77
2023/05/29 07:28:02;;;;;;;0.35;0.28;;;;;;;;;;5022903;28;20058;-77
2023/05/29 07:30:47;;;;;;;0.20;0.20;;;;;;;;;;5023292;28;20050;-77
2023/05/29 07:33:13;;;;;;;0.10;0.10;;;;;;;;;;5016163;28;20066;-77
2023/05/29 07:35:39;;;;;;;0.20;0.20;;;;;;;;;;5020782;28;20560;-76
2023/05/29 07:38:06;;;;;;;0.10;0.10;;;;;;;;;;5022734;28;20591;-78
2023/05/29 07:40:32;;;;;;;0.20;0.20;;;;;;;;;;5022338;28;20524;-77
2023/05/29 07:42:59;;;;;;;0.20;0.20;;;;;;;;;;5020359;28;20144;-77
2023/05/29 07:45:25;;;;;;;0.25;0.25;;;;;;;;;;5020999;28;20058;-78
2023/05/29 07:47:52;;;;;;;0.43;0.43;;;;;;;;;;5019295;28;20065;-77
2023/05/29 07:50:21;;;;;;;0.20;0.20;;;;;;;;;;5019394;28;20141;-77
2023/05/29 07:52:48;;;;;;;0.53;0.53;;;;;;;;;;5020856;28;20064;-75
2023/05/29 07:55:14;;;;;;;0.20;0.20;;;;;;;;;;5019978;28;20285;-75
2023/05/29 07:57:42;;;;;;;0.20;0.20;;;;;;;;;;5021200;28;20050;-75
2023/05/29 08:00:09;;;;;;;0.20;0.20;;;;;;;;;;5021491;28;20059;-76
2023/05/29 08:02:36;;;;;;;0.10;0.10;;;;;;;;;;5012587;28;20046;-76
2023/05/29 08:05:03;;;;;;;0.38;0.38;;;;;;;;;;5021563;28;20060;-76
2023/05/29 08:07:30;;;;;;;0.10;0.10;;;;;;;;;;5023280;28;20061;-75
2023/05/29 08:09:56;;;;;;;0.30;0.28;;;;;;;;;;5022788;28;20064;-76
2023/05/29 08:12:23;;;;;;;0.20;0.20;;;;;;;;;;5023083;28;20051;-76
2023/05/29 08:14:50;;;;;;;0.10;0.10;;;;;;;;;;5021497;28;20057;-75
2023/05/29 08:17:17;;;;;;;0.20;0.20;;;;;;;;;;5022142;28;20137;-75
2023/05/29 08:19:44;;;;;;;0.43;0.43;;;;;;;;;;5023681;28;20062;-76
2023/05/29 08:22:12;;;;;;;1.15;0.30;;;;;;;;;;5015243;28;20117;-76
2023/05/29 08:24:38;;;;;;;0.20;0.20;;;;;;;;;;5026408;28;20861;-76
2023/05/29 08:27:05;;;;;;;0.20;0.20;;;;;;;;;;5025390;28;20137;-76
2023/05/29 08:37:37;;;;;;;1.30;1.20;;;;;;;;;;5040749;28;20062;-76
2023/05/29 08:40:08;;;;;;;0.20;0.20;;;;;;;;;;5040278;28;20057;-76
2023/05/29 08:42:55;;;;;;;1.17;0.52;;;;;;;;;;5041062;28;20057;-75
2023/05/29 08:45:22;;;;;;;0.38;0.38;;;;;;;;;;5040311;28;20057;-76
2023/05/29 08:47:51;;;;;;;0.20;0.20;;;;;;;;;;5034227;28;20065;-75
2023/05/29 08:50:19;;;;;;;0.47;0.38;;;;;;;;;;5023855;28;20646;-76
2023/05/29 08:52:46;;;;;;;0.30;0.30;;;;;;;;;;5022623;28;20058;-75
2023/05/29 08:55:13;;;;;;;0.65;0.20;;;;;;;;;;5023510;28;20531;-76
2023/05/29 08:57:40;;;;;;;0.98;0.85;;;;;;;;;;5024529;28;20058;-76
2023/05/29 09:00:12;;;;;;;0.20;0.20;;;;;;;;;;5024171;28;20081;-76
2023/05/29 09:02:45;;;;;;;0.13;0.13;;;;;;;;;;5024920;28;20054;-76
2023/05/29 09:05:12;;;;;;;0.22;0.22;;;;;;;;;;5020445;28;20050;-76
2023/05/29 09:07:39;;;;;;;0.30;0.30;;;;;;;;;;5029518;28;20054;-76
2023/05/29 09:10:06;;;;;;;0.38;0.38;;;;;;;;;;5024309;28;20057;-76
2023/05/29 09:12:33;;;;;;;0.10;0.10;;;;;;;;;;5028592;28;20818;-76
2023/05/29 09:15:00;;;;;;;0.20;0.20;;;;;;;;;;5029034;28;20156;-75
2023/05/29 09:17:31;;;;;;;0.10;0.10;;;;;;;;;;5038901;28;20057;-75
2023/05/29 09:19:58;;;;;;;0.20;0.20;;;;;;;;;;5025017;28;20053;-74
2023/05/29 09:22:25;;;;;;;0.10;0.10;;;;;;;;;;5023980;28;20053;-75
2023/05/29 09:24:52;;;;;;;0.45;0.30;;;;;;;;;;5036989;28;20501;-74
2023/05/29 09:27:19;;;;;;;1.05;1.05;;;;;;;;;;5025228;28;20057;-74
2023/05/29 09:29:46;;;;;;;0.25;0.25;;;;;;;;;;5024301;28;20389;-74
2023/05/29 09:32:14;;;;;;;0.10;0.10;;;;;;;;;;5025095;28;20057;-75
2023/05/29 09:34:41;;;;;;;0.30;0.30;;;;;;;;;;5023802;28;20053;-75
2023/05/29 09:37:09;;;;;;;0.20;0.20;;;;;;;;;;5024561;28;20563;-75
2023/05/29 09:39:41;;;;;;;0.85;0.85;;;;;;;;;;5033608;28;20357;-75
2023/05/29 09:42:11;;;;;;;0.20;0.20;;;;;;;;;;5028196;28;20049;-75
2023/05/29 09:44:39;;;;;;;0.20;0.20;;;;;;;;;;5023307;28;20057;-75
2023/05/29 09:47:06;;;;;;;0.20;0.20;;;;;;;;;;5021046;28;20496;-75
2023/05/29 09:49:33;;;;;;;0.20;0.20;;;;;;;;;;5024483;28;20140;-75
2023/05/29 09:51:59;;;;;;;1.38;0.40;;;;;;;;;;5023442;28;20057;-76
2023/05/29 09:54:28;;;;;;;0.20;0.20;;;;;;;;;;5025944;28;20093;-76
2023/05/29 09:56:56;;;;;;;1.15;1.00;;;;;;;;;;5026174;28;20064;-75
2023/05/29 09:59:23;;;;;;;0.40;0.40;;;;;;;;;;5026741;28;20597;-75
2023/05/29 10:01:57;;;;;;;0.45;0.45;;;;;;;;;;5044131;28;20060;-76
2023/05/29 10:04:24;;;;;;;1.10;1.10;;;;;;;;;;5017423;28;20543;-76
2023/05/29 10:06:50;;;;;;;0.40;0.40;;;;;;;;;;5024038;28;20141;-75
2023/05/29 10:09:18;;;;;;;0.73;0.73;;;;;;;;;;5023957;28;20177;-75
2023/05/29 10:11:47;;;;;;;0.50;0.50;;;;;;;;;;5024517;28;20697;-75
2023/05/29 10:14:16;;;;;;;0.20;0.20;;;;;;;;;;5013751;28;20085;-75
2023/05/29 10:16:44;;;;;;;0.85;0.65;;;;;;;;;;5022887;28;20440;-75
2023/05/29 10:19:12;;;;;;;0.68;0.68;;;;;;;;;;5023638;28;20057;-76
2023/05/29 10:21:39;;;;;;;0.35;0.35;;;;;;;;;;5035313;28;20148;-76
2023/05/29 10:24:07;;;;;;;0.55;0.35;;;;;;;;;;5029946;28;20053;-75
2023/05/29 10:26:38;;;;;;;0.40;0.40;;;;;;;;;;5024721;28;20065;-76
2023/05/29 10:29:10;;;;;;;0.20;0.20;;;;;;;;;;5025407;28;20507;-75
2023/05/29 10:31:57;;;;;;;5.20;0.40;;;;;;;;;;5022967;28;20542;-76
2023/05/29 10:34:30;;;;;;;0.28;0.28;;;;;;;;;;5018395;28;20559;-75
2023/05/29 10:37:05;;;;;;;0.20;0.20;;;;;;;;;;5012657;28;20160;-75
2023/05/29 10:39:33;;;;;;;1.92;0.98;;;;;;;;;;5026267;28;20503;-76
2023/05/29 10:42:23;;;;;;;0.20;0.20;;;;;;;;;;5024948;28;20116;-76
2023/05/29 10:44:49;;;;;;;0.30;0.30;;;;;;;;;;5023336;28;20137;-75
2023/05/29 10:47:22;;;;;;;0.15;0.15;;;;;;;;;;5021654;28;20121;-76
2023/05/29 10:49:51;;;;;;;2.45;1.45;;;;;;;;;;5022333;28;20060;-75
2023/05/29 10:52:18;;;;;;;0.20;0.20;;;;;;;;;;5019113;28;20106;-75
2023/05/29 10:54:52;;;;;;;2.55;0.85;;;;;;;;;;5023479;28;20559;-75
2023/05/29 10:57:21;;;;;;;0.43;0.43;;;;;;;;;;5026053;28;20594;-76
2023/05/29 10:59:47;;;;;;;0.25;0.22;;;;;;;;;;5008644;28;20054;-75
2023/05/29 11:02:17;;;;;;;0.20;0.20;;;;;;;;;;5022236;28;20112;-76
2023/05/29 11:04:44;;;;;;;0.20;0.20;;;;;;;;;;5021328;28;20050;-76
2023/05/29 11:07:37;;;;;;;0.20;0.20;;;;;;;;;;5022815;28;20057;-76
2023/05/29 11:10:13;;;;;;;0.32;0.32;;;;;;;;;;5018685;28;20054;-76
2023/05/29 11:12:55;;;;;;;0.28;0.20;;;;;;;;;;5022720;28;20478;-75
2023/05/29 11:15:22;;;;;;;3.20;0.52;;;;;;;;;;5022588;28;20053;-76
2023/05/29 11:17:50;;;;;;;0.30;0.30;;;;;;;;;;5043299;28;20089;-76
2023/05/29 11:20:17;;;;;;;0.13;0.13;;;;;;;;;;5024856;28;20061;-75
2023/05/29 11:23:00;;;;;;;3.00;0.68;;;;;;;;;;5021160;28;20108;-76
2023/05/29 11:25:27;;;;;;;0.20;0.20;;;;;;;;;;5019576;28;20054;-76
2023/05/29 11:27:54;;;;;;;0.30;0.30;;;;;;;;;;5021604;28;20060;-76
2023/05/29 11:30:21;;;;;;;0.35;0.35;;;;;;;;;;5026450;28;20504;-76
2023/05/29 11:32:48;;;;;;;0.20;0.20;;;;;;;;;;5022915;28;20077;-76
2023/05/29 11:35:15;;;;;;;0.20;0.20;;;;;;;;;;5020661;28;20144;-75
2023/05/29 11:37:46;;;;;;;0.10;0.10;;;;;;;;;;5020628;28;20080;-75
2023/05/29 11:40:13;;;;;;;0.30;0.30;;;;;;;;;;5021486;28;20049;-76
2023/05/29 11:42:46;;;;;;;1.15;0.60;;;;;;;;;;5021929;28;20175;-75
2023/05/29 11:45:13;;;;;;;0.98;0.20;;;;;;;;;;5022082;28;20050;-75
2023/05/29 11:47:59;;;;;;;0.20;0.20;;;;;;;;;;5022200;28;20955;-75
2023/05/29 11:50:27;;;;;;;0.20;0.20;;;;;;;;;;5013411;28;20057;-75
2023/05/29 11:52:55;;;;;;;0.98;0.40;;;;;;;;;;5023113;28;20544;-75
2023/05/29 11:55:22;;;;;;;2.20;0.40;;;;;;;;;;5022191;28;20104;-76
2023/05/29 11:57:49;;;;;;;0.20;0.20;;;;;;;;;;5027754;28;20167;-75
2023/05/29 12:00:16;;;;;;;0.30;0.30;;;;;;;;;;5026571;28;20149;-75
2023/05/29 12:02:43;;;;;;;1.65;0.47;;;;;;;;;;5029149;28;20055;-76
2023/05/29 12:05:12;;;;;;;0.30;0.30;;;;;;;;;;5022718;28;20058;-76
2023/05/29 12:07:38;;;;;;;0.35;0.32;;;;;;;;;;5027944;28;20594;-76
2023/05/29 12:10:09;;;;;;;1.45;0.68;;;;;;;;;;5026731;28;20050;-75
2023/05/29 12:12:35;;;;;;;1.05;0.52;;;;;;;;;;5019883;28;20050;-77
2023/05/29 12:15:06;;;;;;;0.10;0.10;;;;;;;;;;5009277;28;20081;-75
2023/05/29 12:17:34;;;;;;;0.40;0.40;;;;;;;;;;5025261;28;20600;-75
2023/05/29 12:20:01;;;;;;;0.30;0.30;;;;;;;;;;5022996;28;20065;-75
2023/05/29 12:22:32;;;;;;;0.82;0.55;;;;;;;;;;5041180;28;20062;-75
2023/05/29 12:25:03;;;;;;;0.35;0.28;;;;;;;;;;5026964;28;20061;-77
2023/05/29 12:27:30;;;;;;;0.20;0.20;;;;;;;;;;5027150;28;20075;-76
2023/05/29 12:30:00;;;;;;;0.20;0.20;;;;;;;;;;5016658;28;20562;-76
2023/05/29 12:32:35;;;;;;;0.20;0.20;;;;;;;;;;5027346;28;20085;-76
2023/05/29 12:35:09;;;;;;;0.43;0.43;;;;;;;;;;5025225;28;20054;-75
2023/05/29 12:37:35;;;;;;;0.20;0.20;;;;;;;;;;5023570;28;20061;-76
2023/05/29 12:40:15;;;;;;;0.68;0.40;;;;;;;;;;5025290;28;20520;-76
2023/05/29 12:42:41;;;;;;;0.25;0.25;;;;;;;;;;5024158;28;20978;-75
2023/05/29 12:45:09;;;;;;;0.63;0.40;;;;;;;;;;5025094;28;20598;-75
2023/05/29 12:47:36;;;;;;;0.43;0.40;;;;;;;;;;5023917;28;20058;-75
2023/05/29 12:50:22;;;;;;;0.60;0.60;;;;;;;;;;5041010;28;20088;-76
2023/05/29 12:52:55;;;;;;;0.65;0.55;;;;;;;;;;5027076;28;20096;-76
2023/05/29 12:55:21;;;;;;;0.85;0.85;;;;;;;;;;5023291;28;20054;-75
2023/05/29 12:57:48;;;;;;;0.30;0.30;;;;;;;;;;5026381;28;20517;-76
2023/05/29 13:00:15;;;;;;;0.30;0.30;;;;;;;;;;5024975;28;20595;-75
2023/05/29 13:02:41;;;;;;;0.20;0.20;;;;;;;;;;5026296;28;20049;-75
2023/05/29 13:05:08;;;;;;;0.45;0.25;;;;;;;;;;5017309;28;20542;-75
2023/05/29 13:07:35;;;;;;;0.22;0.22;;;;;;;;;;5026481;28;20045;-76
2023/05/29 13:10:04;;;;;;;0.25;0.25;;;;;;;;;;5024870;28;20054;-76
2023/05/29 13:12:30;;;;;;;0.20;0.20;;;;;;;;;;5026712;28;20056;-74
2023/05/29 13:14:57;;;;;;;0.40;0.40;;;;;;;;;;5017795;28;20579;-75
2023/05/29 13:17:24;;;;;;;0.75;0.75;;;;;;;;;;5034524;28;20065;-75
2023/05/29 13:19:51;;;;;;;1.40;1.05;;;;;;;;;;5025904;28;20054;-74
2023/05/29 13:22:17;;;;;;;0.20;0.20;;;;;;;;;;5025631;28;20057;-75
2023/05/29 13:24:44;;;;;;;0.20;0.20;;;;;;;;;;5026415;28;20084;-76
2023/05/29 13:27:13;;;;;;;0.30;0.30;;;;;;;;;;5026554;28;20049;-74
2023/05/29 13:29:42;;;;;;;0.20;0.20;;;;;;;;;;5026510;28;20124;-76
2023/05/29 13:32:09;;;;;;;0.55;0.50;;;;;;;;;;5039734;28;20077;-75
2023/05/29 13:34:36;;;;;;;1.08;0.95;;;;;;;;;;5045669;28;20053;-75
2023/05/29 13:37:02;;;;;;;0.20;0.20;;;;;;;;;;5031305;28;20061;-76
2023/05/29 13:39:29;;;;;;;0.70;0.70;;;;;;;;;;5026122;28;20140;-75
2023/05/29 13:41:55;;;;;;;2.65;0.60;;;;;;;;;;5026364;28;20061;-75
2023/05/29 13:44:21;;;;;;;1.08;0.57;;;;;;;;;;5025531;28;20060;-75
2023/05/29 13:46:48;;;;;;;1.30;1.00;;;;;;;;;;5024956;28;20053;-75
2023/05/29 13:49:14;;;;;;;0.20;0.20;;;;;;;;;;5021921;28;20061;-75
2023/05/29 13:51:41;;;;;;;0.85;0.40;;;;;;;;;;5024474;28;20061;-75
2023/05/29 13:54:08;;;;;;;0.17;0.17;;;;;;;;;;5023736;28;20057;-75
2023/05/29 13:56:34;;;;;;;12.43;1.15;;;;;;;;;;5020250;28;20502;-74
2023/05/29 13:59:04;;;;;;;1.08;0.70;;;;;;;;;;5024213;28;20112;-74
2023/05/29 14:01:31;;;;;;;;;;;;;;;;;;5025575;28;20132;-74
2023/05/29 14:03:58;;;;;;;0.20;0.20;;;;;;;;;;5030665;28;46479;-74
2023/05/29 14:06:25;;;;;;;0.20;0.20;;;;;;;;;;5028737;28;20057;-74
2023/05/29 14:08:52;;;;;;;0.20;0.20;;;;;;;;;;5024867;28;20077;-75
2023/05/29 14:11:19;;;;;;;0.20;0.20;;;;;;;;;;5023515;28;20066;-74
2023/05/29 14:13:45;;;;;;;0.28;0.28;;;;;;;;;;5025977;28;20193;-75
2023/05/29 14:16:14;;;;;;;0.73;0.57;;;;;;;;;;5026952;28;20140;-74
2023/05/29 14:18:41;;;;;;;0.25;0.25;;;;;;;;;;5016635;28;20050;-75
2023/05/29 14:21:08;;;;;;;0.20;0.20;;;;;;;;;;5026871;28;21330;-75
2023/05/29 14:23:34;;;;;;;0.30;0.30;;;;;;;;;;5025021;28;20058;-75
2023/05/29 14:26:01;;;;;;;1.17;0.50;;;;;;;;;;5025129;28;20088;-75
2023/05/29 14:28:28;;;;;;;0.20;0.20;;;;;;;;;;5025081;28;20141;-75
2023/05/29 14:30:54;;;;;;;0.32;0.32;;;;;;;;;;5024831;28;20058;-75
2023/05/29 14:33:21;;;;;;;0.43;0.43;;;;;;;;;;5024332;28;20050;-75
2023/05/29 14:35:47;;;;;;;0.45;0.40;;;;;;;;;;5024995;28;20085;-75
2023/05/29 14:38:13;;;;;;;0.30;0.30;;;;;;;;;;5024960;28;20045;-75
2023/05/29 14:40:40;;;;;;;0.22;0.20;;;;;;;;;;5024932;28;20054;-74
2023/05/29 14:43:07;;;;;;;0.85;0.85;;;;;;;;;;5023640;28;20148;-74
2023/05/29 14:45:33;;;;;;;0.85;0.47;;;;;;;;;;5022395;28;20576;-75
2023/05/29 14:48:01;;;;;;;0.20;0.20;;;;;;;;;;5023169;28;20932;-75
2023/05/29 14:55:37;;;;;;;0.30;0.30;;;;;;;;;;4937064;28;20055;-75
2023/05/29 14:58:04;;;;;;;0.35;0.35;;;;;;;;;;4999356;28;20130;-76
2023/05/29 15:00:31;;;;;;;0.85;0.57;;;;;;;;;;4998442;28;20058;-75
2023/05/29 15:02:59;;;;;;;0.13;0.13;;;;;;;;;;4998278;28;20064;-75
2023/05/29 15:05:26;;;;;;;1.38;1.17;;;;;;;;;;4999741;28;20085;-75
2023/05/29 15:07:54;;;;;;;2.05;1.50;;;;;;;;;;5000716;28;20382;-75